< < Back
Terminal Aerodrome Forecast


Current Version              Previous Versions:   1  2  3  4  5  6  7  8  9  

Terminal Aerodrome Forecast

760
FTUS42 KGSP 010539
TAFHKY
TAF
KHKY 010539Z 0106/0206 00000KT P6SM BKN100
     FM011500 19008KT P6SM BKN200
     FM020000 18007KT P6SM OVC015
     FM020100 18006KT 3SM -RA OVC015 WS020/20035KT
     FM020500 19010KT 1SM -RA BR OVC008=

Latest METAR

842
SAUS70 KWBC 011000 RRQ
MTRHKY
METAR KHKY 010953Z AUTO 00000KT 10SM BKN100 OVC120 03/M06 A3020 RMK AO2
SLP221 T00331056


USA.gov is the U.S. government's official web portal to all federal, state and local government web resources and services.